Time;durP1;ratioP1;P1;durP2;ratioP2;P2;SDS_P1;SDS_P2;PMS_P1;PMS_P2;Temp;Humidity;BMP_temperature;BMP_pressure;BME280_temperature;BME280_humidity;BME280_pressure;Samples;Min_cycle;Max_cycle;Signal;HPM_P1;HPM_P2
2022/04/05 00:02:01;;;;;;;7.20;6.50;;;7.40;60.90;;;;;;5007746;28;20197;-87
2022/04/05 00:04:26;;;;;;;7.60;6.80;;;7.40;60.60;;;;;;5019468;28;20201;-88
2022/04/05 00:06:52;;;;;;;8.23;6.23;;;7.40;60.70;;;;;;5008191;28;20190;-87
2022/04/05 00:09:17;;;;;;;8.17;5.70;;;7.30;61.70;;;;;;5019911;28;20207;-89
2022/04/05 00:11:43;;;;;;;7.77;6.97;;;7.40;60.70;;;;;;5029451;28;20197;-86
2022/04/05 00:14:09;;;;;;;8.97;7.03;;;7.40;61.00;;;;;;5017343;28;20205;-90
2022/04/05 00:16:35;;;;;;;8.43;6.67;;;7.40;61.00;;;;;;5012047;28;20587;-86
2022/04/05 00:19:00;;;;;;;7.30;6.13;;;7.40;61.20;;;;;;5004107;28;20229;-87
2022/04/05 00:48:55;;;;;;;6.70;6.10;;;7.20;60.50;;;;;;5015310;28;20211;-87
2022/04/05 00:51:22;;;;;;;8.00;6.47;;;7.20;60.90;;;;;;5008484;28;20557;-88
2022/04/05 00:53:51;;;;;;;8.43;6.43;;;7.10;62.50;;;;;;5009002;28;20193;-87
2022/04/05 00:56:19;;;;;;;8.00;6.50;;;7.10;61.90;;;;;;5018098;28;20213;-88
2022/04/05 00:58:52;;;;;;;8.33;7.53;;;7.20;62.80;;;;;;5009758;28;20238;-87
2022/04/05 01:01:22;;;;;;;7.33;6.63;;;7.10;63.50;;;;;;5012588;28;20269;-88
2022/04/05 01:03:53;;;;;;;8.57;6.73;;;7.10;63.30;;;;;;5019565;28;20193;-87
2022/04/05 01:06:23;;;;;;;8.23;7.43;;;7.00;63.20;;;;;;5020753;28;20185;-88
2022/04/05 01:08:50;;;;;;;7.60;6.80;;;7.10;62.00;;;;;;5016904;28;20216;-88
2022/04/05 01:11:16;;;;;;;6.63;5.83;;;7.20;61.80;;;;;;5019964;28;20206;-88
2022/04/05 01:13:42;;;;;;;8.33;7.00;;;7.20;61.60;;;;;;5016179;28;20193;-88
2022/04/05 01:16:10;;;;;;;7.00;6.27;;;7.10;63.20;;;;;;5015592;28;20203;-88
2022/04/05 01:18:36;;;;;;;8.53;7.67;;;7.10;63.50;;;;;;5014992;28;20222;-87
2022/04/05 01:21:02;;;;;;;7.43;6.50;;;7.00;66.00;;;;;;5015028;28;20184;-87
2022/04/05 01:23:28;;;;;;;9.17;7.33;;;7.00;66.90;;;;;;5014685;28;20266;-87
2022/04/05 01:25:55;;;;;;;7.63;6.90;;;6.90;67.90;;;;;;5017390;28;20214;-87
2022/04/05 01:28:21;;;;;;;8.37;6.30;;;6.90;67.30;;;;;;5013291;28;20360;-87
2022/04/05 01:30:46;;;;;;;8.23;5.90;;;6.90;68.20;;;;;;4998625;28;20237;-87
2022/04/05 01:33:12;;;;;;;7.07;6.37;;;6.80;68.40;;;;;;5022421;28;20209;-88
2022/04/05 01:35:39;;;;;;;7.87;6.50;;;6.80;70.10;;;;;;5010439;28;20173;-88
2022/04/05 01:38:06;;;;;;;8.57;7.43;;;6.70;70.60;;;;;;5020543;28;20232;-87
2022/04/05 01:40:33;;;;;;;7.83;6.73;;;6.60;71.10;;;;;;5013476;28;20185;-87
2022/04/05 01:42:59;;;;;;;7.07;6.37;;;6.70;70.50;;;;;;5021115;28;20182;-87
2022/04/05 01:45:24;;;;;;;8.73;6.30;;;6.60;70.40;;;;;;5010287;28;20192;-87
2022/04/05 01:47:50;;;;;;;7.37;6.67;;;6.70;69.10;;;;;;5020745;28;20271;-87
2022/04/05 01:50:16;;;;;;;7.50;6.70;;;6.70;68.70;;;;;;5024211;28;20723;-87
2022/04/05 01:52:42;;;;;;;8.27;6.77;;;6.70;68.90;;;;;;5023649;28;20186;-89
2022/04/05 01:55:08;;;;;;;7.53;6.83;;;6.70;69.00;;;;;;5024145;28;20209;-88
2022/04/05 01:57:34;;;;;;;9.37;6.80;;;6.70;68.80;;;;;;5017234;28;20217;-88
2022/04/05 02:00:02;;;;;;;6.17;5.63;;;6.70;68.70;;;;;;5020071;28;20490;-87
2022/04/05 02:02:27;;;;;;;8.13;6.43;;;6.70;67.80;;;;;;5020982;28;20189;-87
2022/04/05 02:04:53;;;;;;;7.07;5.80;;;6.80;66.70;;;;;;5018168;28;20185;-88
2022/04/05 02:07:19;;;;;;;7.20;6.50;;;6.80;66.00;;;;;;5019575;28;20221;-87
2022/04/05 02:09:48;;;;;;;7.80;6.77;;;6.80;66.60;;;;;;5022762;28;20212;-87
2022/04/05 02:12:16;;;;;;;7.87;7.07;;;6.80;67.30;;;;;;5018714;28;20436;-87
2022/04/05 02:14:41;;;;;;;7.20;6.47;;;6.80;66.70;;;;;;5017010;28;20224;-87
2022/04/05 02:17:08;;;;;;;7.40;6.70;;;6.80;66.80;;;;;;5009499;28;20630;-89
2022/04/05 02:19:34;;;;;;;6.57;5.87;;;6.80;68.20;;;;;;5015821;28;20244;-89
2022/04/05 02:22:00;;;;;;;7.73;6.77;;;6.90;68.00;;;;;;5015702;28;20186;-87
2022/04/05 02:24:26;;;;;;;7.70;6.73;;;6.80;69.70;;;;;;5016737;28;20221;-88
2022/04/05 02:26:52;;;;;;;7.97;6.93;;;6.80;70.90;;;;;;5012922;28;20182;-88
2022/04/05 02:29:17;;;;;;;8.23;7.23;;;6.70;71.20;;;;;;5020282;28;20194;-88
2022/04/05 02:31:43;;;;;;;7.37;5.70;;;6.60;70.90;;;;;;5022604;28;20205;-87
2022/04/05 02:34:09;;;;;;;7.57;6.43;;;6.70;68.90;;;;;;5021527;28;20190;-88
2022/04/05 02:36:35;;;;;;;7.57;6.50;;;6.70;69.20;;;;;;5019806;28;20252;-87
2022/04/05 02:39:02;;;;;;;8.33;7.40;;;6.70;69.80;;;;;;5011283;28;20194;-88
2022/04/05 02:41:28;;;;;;;7.87;6.33;;;6.60;69.20;;;;;;5014282;28;20182;-88
2022/04/05 02:43:53;;;;;;;5.90;5.30;;;6.70;69.20;;;;;;5023218;28;20619;-88
2022/04/05 02:46:20;;;;;;;7.77;6.17;;;6.80;67.40;;;;;;5027503;28;20249;-88
2022/04/05 02:48:46;;;;;;;9.67;6.50;;;6.80;67.90;;;;;;5017303;28;20213;-87
2022/04/05 02:51:13;;;;;;;7.37;6.67;;;6.80;68.10;;;;;;5018731;28;20189;-87
2022/04/05 02:53:40;;;;;;;6.70;6.10;;;6.80;67.70;;;;;;5005890;28;20657;-87
2022/04/05 02:56:07;;;;;;;8.90;6.80;;;6.80;68.00;;;;;;5020507;28;20843;-88
2022/04/05 02:58:34;;;;;;;7.70;6.03;;;6.80;67.40;;;;;;5024102;28;20212;-87
2022/04/05 03:01:00;;;;;;;7.10;6.13;;;6.90;67.60;;;;;;5024126;28;20190;-87
2022/04/05 03:03:26;;;;;;;7.63;6.17;;;6.90;66.40;;;;;;5023074;28;20189;-88
2022/04/05 03:05:51;;;;;;;6.20;5.63;;;6.80;67.60;;;;;;5011608;28;20679;-87
2022/04/05 03:08:17;;;;;;;6.67;5.90;;;6.80;68.90;;;;;;5019272;28;20197;-87
2022/04/05 03:10:43;;;;;;;6.97;6.27;;;6.80;69.60;;;;;;5017462;28;20247;-87
2022/04/05 03:13:09;;;;;;;7.70;6.17;;;6.70;72.70;;;;;;5018458;28;20189;-88
2022/04/05 03:15:34;;;;;;;8.37;5.67;;;6.70;72.50;;;;;;5012436;28;20217;-87
2022/04/05 03:18:00;;;;;;;7.70;6.97;;;6.60;71.90;;;;;;5009092;28;20222;-88
2022/04/05 03:20:26;;;;;;;8.17;6.50;;;6.50;75.00;;;;;;5018208;28;20217;-87
2022/04/05 03:22:53;;;;;;;8.07;6.50;;;6.50;76.00;;;;;;5016819;28;20197;-87
2022/04/05 03:25:19;;;;;;;7.20;6.53;;;6.50;78.70;;;;;;5016087;28;20187;-87
2022/04/05 03:27:44;;;;;;;7.43;6.67;;;6.30;81.50;;;;;;5020886;28;20224;-87
2022/04/05 03:30:13;;;;;;;8.60;6.60;;;6.30;80.80;;;;;;5019717;28;20221;-87
2022/04/05 03:32:39;;;;;;;7.80;6.63;;;6.30;83.40;;;;;;5017984;28;20549;-87
2022/04/05 03:35:06;;;;;;;8.10;7.30;;;6.20;85.20;;;;;;5006955;28;20190;-86
2022/04/05 03:37:32;;;;;;;8.40;7.03;;;6.10;88.20;;;;;;5003635;28;20222;-87
2022/04/05 03:39:58;;;;;;;8.50;6.53;;;6.10;90.90;;;;;;4998299;28;20699;-88
2022/04/05 03:42:23;;;;;;;7.37;6.50;;;6.00;94.70;;;;;;5010900;28;20187;-88
2022/04/05 03:44:49;;;;;;;7.60;6.87;;;5.90;94.30;;;;;;5006261;28;20196;-88
2022/04/05 03:47:15;;;;;;;8.50;6.80;;;5.90;95.90;;;;;;4999349;28;20226;-87
2022/04/05 03:49:41;;;;;;;8.53;7.53;;;5.80;98.60;;;;;;5010094;28;20188;-87
2022/04/05 03:52:07;;;;;;;7.77;6.97;;;5.70;99.80;;;;;;5018278;28;20193;-88
2022/04/05 03:54:33;;;;;;;8.30;7.20;;;5.80;99.00;;;;;;5013645;28;20186;-88
2022/04/05 03:56:59;;;;;;;8.00;7.20;;;5.60;99.90;;;;;;5019077;28;20732;-88
2022/04/05 03:59:24;;;;;;;9.60;7.57;;;5.70;99.90;;;;;;5018006;28;20213;-88
2022/04/05 04:01:50;;;;;;;8.47;7.67;;;5.60;99.90;;;;;;5016981;28;20221;-88
2022/04/05 04:04:16;;;;;;;8.20;7.40;;;5.60;99.90;;;;;;5003596;28;20233;-88
2022/04/05 04:06:41;;;;;;;8.27;7.47;;;5.50;99.90;;;;;;5009208;28;20213;-88
2022/04/05 04:09:07;;;;;;;9.10;6.43;;;5.50;99.90;;;;;;5004864;28;20248;-88
2022/04/05 04:11:33;;;;;;;8.50;7.57;;;5.50;99.90;;;;;;5002472;28;20217;-88
2022/04/05 04:13:58;;;;;;;8.27;7.47;;;5.40;99.90;;;;;;5008112;28;20201;-88
2022/04/05 04:16:25;;;;;;;8.37;7.53;;;5.40;99.90;;;;;;4998717;28;20218;-87
2022/04/05 04:18:51;;;;;;;9.23;7.83;;;5.30;99.90;;;;;;5012539;28;20213;-88
2022/04/05 04:21:17;;;;;;;8.10;7.30;;;5.40;99.90;;;;;;5008536;28;20200;-88
2022/04/05 04:23:43;;;;;;;8.50;7.53;;;5.40;99.90;;;;;;5005351;28;20685;-88
2022/04/05 04:26:08;;;;;;;9.80;7.67;;;5.30;99.90;;;;;;5011941;28;20190;-87
2022/04/05 04:28:35;;;;;;;9.57;7.70;;;5.40;99.90;;;;;;4999836;28;20438;-90
2022/04/05 04:31:00;;;;;;;8.43;7.53;;;5.30;99.90;;;;;;4998133;28;20193;-88
2022/04/05 04:33:26;;;;;;;8.47;7.67;;;5.30;99.90;;;;;;5007142;28;20185;-89
2022/04/05 04:35:53;;;;;;;7.60;6.77;;;5.40;99.90;;;;;;5008868;28;20210;-88
2022/04/05 04:38:19;;;;;;;9.07;7.40;;;5.40;99.90;;;;;;5022722;28;20252;-88
2022/04/05 04:40:50;;;;;;;10.20;7.37;;;5.30;99.90;;;;;;5012662;28;20693;-89
2022/04/05 04:43:17;;;;;;;10.10;8.13;;;5.40;99.90;;;;;;4995991;28;20174;-88
2022/04/05 04:45:43;;;;;;;8.47;7.60;;;5.30;99.90;;;;;;5011731;28;20186;-89
2022/04/05 04:48:09;;;;;;;9.37;8.17;;;5.40;99.90;;;;;;5015852;28;20209;-87
2022/04/05 04:50:35;;;;;;;8.07;7.27;;;5.40;99.90;;;;;;5015243;28;20213;-89
2022/04/05 04:53:01;;;;;;;10.40;8.17;;;5.40;99.80;;;;;;5022240;28;20185;-89
2022/04/05 04:55:28;;;;;;;8.70;7.80;;;5.40;99.90;;;;;;5017484;28;20178;-88
2022/04/05 04:57:54;;;;;;;8.07;7.03;;;5.30;99.90;;;;;;5018229;28;20205;-88
2022/04/05 05:00:20;;;;;;;8.87;7.97;;;5.40;99.90;;;;;;5013396;28;20313;-88
2022/04/05 05:02:51;;;;;;;7.93;7.10;;;5.40;99.90;;;;;;5017717;28;20209;-88
2022/04/05 05:05:17;;;;;;;11.47;7.67;;;5.40;99.90;;;;;;5012251;28;20190;-88
2022/04/05 05:07:44;;;;;;;10.23;8.60;;;5.40;99.90;;;;;;5018672;28;20198;-88
2022/04/05 05:10:14;;;;;;;8.53;7.70;;;5.40;99.90;;;;;;5007587;28;20190;-89
2022/04/05 05:12:42;;;;;;;8.00;7.20;;;5.40;99.90;;;;;;5005909;28;20194;-89
2022/04/05 05:15:10;;;;;;;8.90;8.00;;;5.40;99.90;;;;;;5022336;28;20185;-88
2022/04/05 05:17:36;;;;;;;11.13;7.90;;;5.30;99.90;;;;;;5022779;28;20243;-88
2022/04/05 05:20:03;;;;;;;9.13;8.23;;;5.30;99.90;;;;;;5017440;28;20565;-87
2022/04/05 05:22:29;;;;;;;9.43;8.40;;;5.20;99.90;;;;;;5018714;28;20264;-88
2022/04/05 05:24:54;;;;;;;7.97;7.17;;;5.30;99.90;;;;;;5019838;28;20212;-87
2022/04/05 05:27:20;;;;;;;9.30;8.40;;;5.30;99.90;;;;;;5019003;28;20613;-88
2022/04/05 05:29:46;;;;;;;9.77;8.33;;;5.30;99.90;;;;;;5012097;28;20684;-88
2022/04/05 05:32:12;;;;;;;10.60;8.33;;;5.30;99.90;;;;;;5010676;28;20568;-88
2022/04/05 05:34:37;;;;;;;10.03;7.93;;;5.30;99.90;;;;;;5010463;28;20229;-88
2022/04/05 05:37:05;;;;;;;10.13;7.30;;;5.30;99.90;;;;;;5001580;28;20753;-87
2022/04/05 05:39:31;;;;;;;8.67;7.77;;;5.30;99.90;;;;;;4998887;28;20198;-88
2022/04/05 05:41:57;;;;;;;9.10;8.17;;;5.30;99.90;;;;;;5015458;28;20209;-87
2022/04/05 05:44:23;;;;;;;8.87;7.27;;;5.30;99.90;;;;;;5016076;28;20186;-88
2022/04/05 05:46:49;;;;;;;9.60;8.60;;;5.40;99.90;;;;;;5018729;28;20201;-88
2022/04/05 05:49:15;;;;;;;10.10;8.30;;;5.30;99.90;;;;;;5027735;28;20190;-88
2022/04/05 05:51:40;;;;;;;8.43;7.60;;;5.40;99.90;;;;;;5020208;28;20213;-89
2022/04/05 05:54:06;;;;;;;9.90;7.83;;;5.30;99.90;;;;;;5021504;28;20190;-88
2022/04/05 05:56:32;;;;;;;10.17;7.97;;;5.30;99.90;;;;;;5019728;28;20566;-88
2022/04/05 05:58:58;;;;;;;9.37;8.07;;;5.20;99.90;;;;;;5015552;28;20206;-88
2022/04/05 06:01:24;;;;;;;10.43;8.93;;;5.20;99.90;;;;;;5018104;28;20196;-88
2022/04/05 06:03:50;;;;;;;11.00;9.07;;;5.20;99.90;;;;;;5015029;28;20193;-88
2022/04/05 06:06:16;;;;;;;10.70;8.73;;;5.20;99.90;;;;;;5019255;28;20182;-88
2022/04/05 06:08:42;;;;;;;11.33;8.50;;;5.20;99.90;;;;;;5024027;28;20209;-88
2022/04/05 06:11:08;;;;;;;9.50;8.53;;;5.20;99.90;;;;;;5022672;28;20185;-87
2022/04/05 06:13:35;;;;;;;12.73;7.73;;;5.30;99.90;;;;;;5018242;28;20281;-88
2022/04/05 06:16:01;;;;;;;10.17;9.07;;;5.40;99.90;;;;;;5026349;28;20197;-88
2022/04/05 06:18:27;;;;;;;10.13;8.47;;;5.30;99.90;;;;;;5030451;28;20217;-88
2022/04/05 06:20:52;;;;;;;9.77;8.30;;;5.30;99.90;;;;;;5023856;28;20751;-88
2022/04/05 06:23:18;;;;;;;9.70;8.13;;;5.30;99.90;;;;;;5014845;28;20244;-87
2022/04/05 06:25:44;;;;;;;11.13;8.23;;;5.40;99.70;;;;;;5016156;28;20190;-88
2022/04/05 06:28:10;;;;;;;8.67;7.87;;;5.40;99.80;;;;;;5047935;28;20212;-88
2022/04/05 06:30:38;;;;;;;9.70;8.13;;;5.30;99.90;;;;;;5031716;28;20228;-89
2022/04/05 06:33:15;;;;;;;9.80;8.80;;;5.40;99.90;;;;;;5025335;28;20186;-87
2022/04/05 06:35:45;;;;;;;9.80;7.80;;;5.40;99.90;;;;;;5011195;28;20185;-88
2022/04/05 06:38:11;;;;;;;10.83;8.10;;;5.50;99.90;;;;;;5020864;28;20746;-87
2022/04/05 06:40:38;;;;;;;8.77;7.57;;;5.40;99.50;;;;;;5013272;28;20193;-87
2022/04/05 06:43:04;;;;;;;10.73;7.90;;;5.40;99.00;;;;;;5018879;28;20190;-88
2022/04/05 06:45:30;;;;;;;9.03;7.50;;;5.60;98.80;;;;;;5022344;28;20217;-88
2022/04/05 06:47:56;;;;;;;9.20;8.13;;;5.60;99.30;;;;;;5023353;28;20220;-88
2022/04/05 06:50:25;;;;;;;9.20;8.20;;;5.60;99.40;;;;;;5027974;28;20804;-87
2022/04/05 06:52:53;;;;;;;9.67;7.57;;;5.60;97.50;;;;;;5027852;28;20796;-88
2022/04/05 06:55:19;;;;;;;8.40;7.50;;;5.60;99.60;;;;;;5002904;28;20653;-89
2022/04/05 06:57:45;;;;;;;9.43;8.17;;;5.80;95.10;;;;;;5015663;28;20772;-88
2022/04/05 07:00:12;;;;;;;8.33;7.53;;;5.80;96.80;;;;;;5014903;28;20209;-88
2022/04/05 07:02:39;;;;;;;10.00;7.60;;;5.80;96.20;;;;;;5017599;28;20192;-88
2022/04/05 07:05:06;;;;;;;10.40;8.00;;;5.90;95.60;;;;;;5012933;28;20198;-88
2022/04/05 07:07:32;;;;;;;8.03;7.23;;;6.00;93.50;;;;;;5018687;28;20673;-88
2022/04/05 07:09:58;;;;;;;9.57;7.53;;;6.00;93.30;;;;;;5031497;28;20275;-88
2022/04/05 07:12:23;;;;;;;9.47;7.70;;;6.00;94.60;;;;;;5025377;28;20218;-88
2022/04/05 07:14:51;;;;;;;9.73;7.83;;;6.00;95.10;;;;;;5021515;28;20220;-88
2022/04/05 07:17:17;;;;;;;6.67;5.97;;;6.10;93.10;;;;;;5020821;28;20217;-88
2022/04/05 07:19:42;;;;;;;8.27;7.47;;;6.10;92.80;;;;;;4995803;28;20196;-88
2022/04/05 07:22:08;;;;;;;8.87;8.00;;;6.00;93.00;;;;;;5019146;28;20596;-88
2022/04/05 07:24:34;;;;;;;8.83;6.83;;;6.00;95.10;;;;;;5020049;28;20196;-88
2022/04/05 07:27:00;;;;;;;9.43;8.23;;;6.00;93.80;;;;;;5021839;28;20197;-87
2022/04/05 07:29:25;;;;;;;9.13;8.30;;;6.00;96.40;;;;;;5026710;28;20186;-88
2022/04/05 07:31:51;;;;;;;10.13;7.30;;;5.90;95.70;;;;;;5030435;28;20196;-88
2022/04/05 07:34:17;;;;;;;8.97;7.77;;;6.00;95.30;;;;;;5024931;28;20192;-89
2022/04/05 07:36:43;;;;;;;11.10;8.53;;;6.00;97.20;;;;;;5018102;28;20221;-88
2022/04/05 07:39:09;;;;;;;10.87;8.53;;;5.90;98.50;;;;;;5018615;28;20188;-88
2022/04/05 07:41:35;;;;;;;11.47;8.37;;;6.00;98.40;;;;;;5016404;28;20257;-88
2022/04/05 07:44:01;;;;;;;9.27;7.70;;;6.00;97.60;;;;;;5019043;28;20209;-88
2022/04/05 07:46:27;;;;;;;11.13;7.90;;;5.90;97.50;;;;;;5026261;28;20272;-88
2022/04/05 07:48:53;;;;;;;8.97;8.07;;;5.90;96.10;;;;;;5009785;28;20238;-88
2022/04/05 07:51:18;;;;;;;9.87;7.70;;;5.90;97.80;;;;;;5007045;28;20706;-88
2022/04/05 07:54:16;;;;;;;8.97;7.43;;;5.80;97.20;;;;;;5016070;28;20186;-89
2022/04/05 07:56:42;;;;;;;10.17;7.83;;;5.90;98.30;;;;;;5009567;28;20206;-88
2022/04/05 07:59:10;;;;;;;8.23;7.30;;;5.90;98.30;;;;;;5005523;28;20197;-88
2022/04/05 08:01:35;;;;;;;9.53;8.10;;;5.90;99.50;;;;;;5008350;28;20189;-87
2022/04/05 08:04:01;;;;;;;8.97;8.07;;;5.90;97.90;;;;;;5014114;28;20653;-89
2022/04/05 08:06:28;;;;;;;8.30;7.23;;;6.00;98.30;;;;;;5008843;28;20559;-87
2022/04/05 08:08:55;;;;;;;8.33;7.53;;;6.10;96.40;;;;;;5008422;28;20241;-89
2022/04/05 08:11:21;;;;;;;9.63;7.67;;;6.10;96.50;;;;;;5007963;28;20217;-87
2022/04/05 08:13:47;;;;;;;8.03;7.20;;;6.10;98.40;;;;;;5006712;28;20196;-87
2022/04/05 08:16:12;;;;;;;9.67;8.17;;;6.10;94.40;;;;;;5010094;28;20210;-89
2022/04/05 08:18:38;;;;;;;9.43;8.50;;;6.10;94.40;;;;;;5011773;28;20229;-87
2022/04/05 08:21:04;;;;;;;8.97;8.03;;;6.10;96.50;;;;;;5015436;28;20190;-88
2022/04/05 08:23:29;;;;;;;8.93;6.63;;;6.10;97.20;;;;;;5009098;28;20178;-88
2022/04/05 08:25:55;;;;;;;8.57;7.40;;;6.10;94.20;;;;;;5012206;28;20181;-88
2022/04/05 08:28:21;;;;;;;8.77;7.97;;;6.20;94.00;;;;;;5008379;28;20252;-88
2022/04/05 08:30:47;;;;;;;8.43;7.13;;;6.20;94.40;;;;;;5002530;28;20235;-87
2022/04/05 08:33:12;;;;;;;10.03;8.03;;;6.30;93.80;;;;;;4989747;28;20189;-88
2022/04/05 08:35:39;;;;;;;10.77;7.57;;;6.30;94.10;;;;;;5014628;28;20258;-88
2022/04/05 08:38:05;;;;;;;8.67;7.77;;;6.40;93.80;;;;;;5011511;28;20213;-88
2022/04/05 08:40:31;;;;;;;8.97;7.50;;;6.40;92.50;;;;;;5006239;28;20230;-87
2022/04/05 08:42:58;;;;;;;8.47;7.67;;;6.40;93.80;;;;;;5007249;28;20186;-88
2022/04/05 08:45:27;;;;;;;9.80;7.67;;;6.40;93.80;;;;;;5006125;28;20178;-87
2022/04/05 08:47:56;;;;;;;8.77;7.73;;;6.40;93.70;;;;;;5013321;28;20193;-87
2022/04/05 08:50:24;;;;;;;8.53;7.37;;;6.50;92.50;;;;;;5015886;28;20189;-87
2022/04/05 08:52:51;;;;;;;8.53;7.63;;;6.60;91.70;;;;;;5015699;28;20577;-87
2022/04/05 08:55:18;;;;;;;9.27;8.37;;;6.60;89.30;;;;;;5021094;28;20245;-87
2022/04/05 08:57:44;;;;;;;9.17;6.93;;;6.60;89.10;;;;;;5013803;28;20221;-86
2022/04/05 09:00:12;;;;;;;8.60;7.60;;;6.70;88.60;;;;;;5014483;28;20193;-87
2022/04/05 09:02:38;;;;;;;8.33;6.80;;;6.70;90.00;;;;;;5016833;28;20194;-87
2022/04/05 09:05:05;;;;;;;7.67;6.80;;;6.70;90.10;;;;;;4993876;28;20192;-87
2022/04/05 09:07:33;;;;;;;8.40;7.50;;;6.80;86.80;;;;;;4997858;28;20249;-89
2022/04/05 09:10:13;;;;;;;10.20;7.73;;;6.90;87.80;;;;;;4997116;28;20222;-89
2022/04/05 09:12:45;;;;;;;8.50;7.67;;;6.90;87.30;;;;;;5005095;28;20193;-89
2022/04/05 09:15:24;;;;;;;7.70;6.90;;;7.00;87.20;;;;;;5007359;28;20178;-88
2022/04/05 09:17:50;;;;;;;8.73;7.63;;;6.90;88.90;;;;;;5010453;28;20217;-88
2022/04/05 09:20:18;;;;;;;7.63;6.90;;;6.90;88.00;;;;;;5006959;28;20242;-88
2022/04/05 09:22:44;;;;;;;7.60;6.80;;;6.90;88.00;;;;;;5011765;28;20189;-88
2022/04/05 09:25:19;;;;;;;9.60;7.53;;;7.00;87.50;;;;;;4991525;28;20534;-88
2022/04/05 09:27:52;;;;;;;7.93;7.13;;;7.00;86.90;;;;;;5008893;28;20247;-89
2022/04/05 09:30:21;;;;;;;8.23;7.37;;;7.00;88.00;;;;;;5012774;28;20198;-87
2022/04/05 09:32:51;;;;;;;8.87;6.57;;;7.00;88.90;;;;;;5011355;28;20209;-88
2022/04/05 09:35:41;;;;;;;7.43;6.73;;;7.10;89.10;;;;;;5013977;28;20181;-88
2022/04/05 09:38:20;;;;;;;9.77;7.63;;;7.10;87.80;;;;;;5011691;28;20206;-88
2022/04/05 09:40:52;;;;;;;9.10;7.23;;;7.10;88.30;;;;;;5005960;28;20240;-88
2022/04/05 09:43:17;;;;;;;8.70;7.30;;;7.20;85.50;;;;;;5010117;28;20190;-88
2022/04/05 09:45:55;;;;;;;8.70;7.80;;;7.20;84.70;;;;;;5012551;28;20193;-88
2022/04/05 09:48:26;;;;;;;8.80;7.83;;;7.20;86.50;;;;;;5007785;28;20236;-88
2022/04/05 09:51:03;;;;;;;8.53;7.60;;;7.10;87.00;;;;;;5008244;28;20201;-88
2022/04/05 09:53:40;;;;;;;11.37;7.60;;;7.20;88.10;;;;;;5008574;28;20188;-88
2022/04/05 09:56:06;;;;;;;8.20;7.33;;;7.30;87.30;;;;;;4991044;28;20557;-89
2022/04/05 09:58:32;;;;;;;10.93;8.00;;;7.30;86.90;;;;;;5005623;28;20268;-88
2022/04/05 10:01:10;;;;;;;7.83;7.03;;;7.30;86.20;;;;;;5007704;28;20193;-88
2022/04/05 10:03:40;;;;;;;9.17;7.23;;;7.40;85.80;;;;;;5007952;28;20241;-88
2022/04/05 10:06:06;;;;;;;8.17;7.37;;;7.50;85.10;;;;;;5008432;28;20193;-88
2022/04/05 10:08:34;;;;;;;9.10;7.73;;;7.50;84.10;;;;;;5003381;28;20217;-88
2022/04/05 10:11:00;;;;;;;8.20;7.40;;;7.50;83.30;;;;;;5013663;28;20225;-90
2022/04/05 10:13:28;;;;;;;8.03;7.23;;;7.60;84.00;;;;;;5011106;28;20194;-88
2022/04/05 10:15:55;;;;;;;9.77;7.23;;;7.60;83.80;;;;;;5008786;28;20249;-88
2022/04/05 10:18:21;;;;;;;7.93;7.10;;;7.60;83.90;;;;;;5005550;28;20225;-88
2022/04/05 10:20:51;;;;;;;8.20;7.20;;;7.50;85.70;;;;;;5004030;28;20716;-88
2022/04/05 10:23:22;;;;;;;9.33;7.97;;;7.40;85.60;;;;;;5005925;28;20178;-88
2022/04/05 10:25:51;;;;;;;7.67;6.87;;;7.40;86.90;;;;;;5006207;28;20183;-88
2022/04/05 10:28:22;;;;;;;10.67;7.73;;;7.40;85.90;;;;;;5014597;28;20321;-87
2022/04/05 10:31:31;;;;;;;7.63;6.93;;;7.30;86.90;;;;;;5010283;28;20182;-89
2022/04/05 10:34:16;;;;;;;8.20;7.40;;;7.30;86.90;;;;;;4977658;28;20194;-88
2022/04/05 10:37:07;;;;;;;8.20;7.40;;;7.40;87.30;;;;;;5002957;28;20685;-88
2022/04/05 10:39:33;;;;;;;8.73;7.90;;;7.50;88.70;;;;;;5010956;28;20220;-88
2022/04/05 10:42:08;;;;;;;9.77;8.23;;;7.40;86.10;;;;;;5005224;28;20182;-87
2022/04/05 10:44:38;;;;;;;9.43;7.43;;;7.50;85.20;;;;;;5007310;28;20260;-88
2022/04/05 10:47:06;;;;;;;8.27;6.90;;;7.50;86.00;;;;;;5007014;28;20222;-88
2022/04/05 10:49:43;;;;;;;11.00;7.37;;;7.50;87.60;;;;;;5009453;28;20186;-87
2022/04/05 10:52:27;;;;;;;10.63;8.00;;;7.60;86.50;;;;;;5009500;28;20522;-88
2022/04/05 10:55:12;;;;;;;8.17;7.33;;;7.60;86.80;;;;;;5022814;28;20189;-89
2022/04/05 10:57:39;;;;;;;9.30;8.13;;;7.40;88.30;;;;;;5009448;28;20217;-89
2022/04/05 11:00:10;;;;;;;9.10;7.23;;;7.50;87.00;;;;;;5009261;28;20189;-88
2022/04/05 11:02:39;;;;;;;10.57;7.17;;;7.50;87.00;;;;;;5008247;28;20260;-88
2022/04/05 11:05:27;;;;;;;8.33;7.43;;;7.60;85.90;;;;;;5005759;28;20832;-88
2022/04/05 11:07:59;;;;;;;8.67;7.40;;;7.60;86.10;;;;;;5014875;28;20203;-88
2022/04/05 11:10:46;;;;;;;7.47;6.77;;;7.70;85.70;;;;;;5010616;28;20198;-89
2022/04/05 11:13:16;;;;;;;7.90;7.17;;;7.70;86.20;;;;;;5015830;28;20178;-89
2022/04/05 11:15:52;;;;;;;8.57;7.13;;;8.00;87.10;;;;;;5023463;28;20764;-85
2022/04/05 11:18:23;;;;;;;10.07;7.50;;;8.10;86.80;;;;;;5018922;28;20217;-87
2022/04/05 11:20:51;;;;;;;8.33;7.20;;;8.10;87.80;;;;;;5020869;28;20169;-86
2022/04/05 11:23:19;;;;;;;7.73;6.93;;;8.00;89.00;;;;;;5007748;28;20186;-88
2022/04/05 11:25:46;;;;;;;8.93;7.27;;;8.00;87.50;;;;;;5006165;28;20201;-86
2022/04/05 11:28:18;;;;;;;11.07;7.73;;;8.00;89.20;;;;;;5009395;28;20232;-89
2022/04/05 11:30:56;;;;;;;10.97;7.57;;;8.00;90.30;;;;;;5005736;28;20185;-88
2022/04/05 11:33:30;;;;;;;9.43;7.47;;;7.90;91.00;;;;;;5005183;28;20180;-88
2022/04/05 11:36:05;;;;;;;9.40;7.57;;;8.00;90.10;;;;;;5007569;28;20184;-89
2022/04/05 11:38:41;;;;;;;8.43;7.60;;;8.10;91.10;;;;;;5009765;28;20305;-86
2022/04/05 11:41:21;;;;;;;10.93;8.10;;;8.30;90.00;;;;;;5011724;28;20204;-87
2022/04/05 11:43:50;;;;;;;8.30;7.50;;;8.30;91.50;;;;;;5013134;28;20200;-89
2022/04/05 11:46:22;;;;;;;8.03;7.17;;;8.30;91.40;;;;;;5017285;28;20272;-87
2022/04/05 11:48:50;;;;;;;8.83;7.77;;;8.20;92.30;;;;;;4998676;28;20858;-87
2022/04/05 11:51:17;;;;;;;8.73;7.83;;;8.30;92.60;;;;;;5004433;28;20187;-87
2022/04/05 11:53:45;;;;;;;7.93;7.20;;;8.30;91.70;;;;;;5000213;28;20679;-87
2022/04/05 11:56:22;;;;;;;8.53;7.63;;;8.30;92.30;;;;;;5009908;28;20205;-88
2022/04/05 11:58:57;;;;;;;9.27;7.60;;;8.30;88.60;;;;;;5016405;28;20206;-87
2022/04/05 12:01:28;;;;;;;10.53;7.83;;;8.30;88.60;;;;;;5009327;28;20256;-87
2022/04/05 12:03:59;;;;;;;8.23;6.97;;;8.30;89.10;;;;;;5023790;28;20170;-87
2022/04/05 12:06:29;;;;;;;7.50;6.80;;;8.30;89.30;;;;;;5017331;28;20186;-87
2022/04/05 12:09:00;;;;;;;7.70;6.90;;;8.60;87.80;;;;;;5013999;28;20209;-87
2022/04/05 12:11:29;;;;;;;7.67;6.87;;;8.60;88.40;;;;;;5009066;28;20213;-88
2022/04/05 12:14:04;;;;;;;8.37;7.57;;;8.50;91.00;;;;;;5018352;28;20197;-88
2022/04/05 12:16:45;;;;;;;9.10;7.57;;;8.40;91.50;;;;;;5008198;28;20201;-88
2022/04/05 12:19:11;;;;;;;9.43;7.83;;;8.40;92.20;;;;;;5017478;28;20185;-86
2022/04/05 12:21:37;;;;;;;10.60;8.10;;;8.50;92.00;;;;;;5028023;28;20184;-84
2022/04/05 12:24:03;;;;;;;9.63;6.57;;;8.50;90.90;;;;;;5021775;28;20178;-86
2022/04/05 12:26:32;;;;;;;9.07;8.17;;;8.50;91.00;;;;;;5016497;28;20193;-84
2022/04/05 12:28:59;;;;;;;8.37;7.13;;;8.60;90.70;;;;;;5013341;28;20274;-85
2022/04/05 12:31:30;;;;;;;8.57;7.70;;;8.70;89.70;;;;;;5011176;28;20186;-85
2022/04/05 12:34:08;;;;;;;10.60;7.13;;;8.80;89.00;;;;;;5012497;28;20217;-85
2022/04/05 12:36:38;;;;;;;8.00;7.30;;;8.80;88.90;;;;;;5013358;28;20216;-85
2022/04/05 12:39:07;;;;;;;7.60;6.90;;;8.80;88.80;;;;;;5010526;28;20198;-85
2022/04/05 12:41:40;;;;;;;9.50;6.77;;;8.80;88.70;;;;;;5012768;28;20206;-85
2022/04/05 12:44:09;;;;;;;8.43;7.17;;;8.70;91.30;;;;;;5012842;28;20313;-85
2022/04/05 12:46:44;;;;;;;8.10;7.00;;;8.70;90.50;;;;;;5011935;28;20182;-86
2022/04/05 12:49:14;;;;;;;7.13;6.53;;;8.80;89.30;;;;;;5010109;28;20188;-85
2022/04/05 12:51:39;;;;;;;7.97;6.60;;;8.90;89.60;;;;;;5009069;28;20194;-85
2022/04/05 12:54:05;;;;;;;8.97;6.73;;;8.90;86.60;;;;;;5016907;28;20260;-85
2022/04/05 12:56:32;;;;;;;7.80;6.33;;;9.00;86.20;;;;;;5012910;28;20225;-85
2022/04/05 12:59:05;;;;;;;9.57;7.27;;;8.90;84.60;;;;;;5011921;28;20288;-85
2022/04/05 13:01:30;;;;;;;7.13;6.43;;;9.00;83.20;;;;;;5007443;28;20209;-85
2022/04/05 13:04:04;;;;;;;8.70;7.00;;;9.10;83.50;;;;;;5009930;28;20183;-85
2022/04/05 13:06:31;;;;;;;8.20;7.00;;;9.20;84.20;;;;;;5016760;28;20198;-85
2022/04/05 13:09:14;;;;;;;7.47;6.77;;;9.20;82.90;;;;;;5010375;28;20210;-85
2022/04/05 13:11:40;;;;;;;9.90;7.00;;;9.10;85.60;;;;;;5011372;28;20272;-85
2022/04/05 13:14:12;;;;;;;7.57;6.90;;;9.10;82.60;;;;;;5008111;28;20600;-86
2022/04/05 13:16:38;;;;;;;8.63;7.63;;;9.20;82.70;;;;;;5010293;28;20210;-86
2022/04/05 13:19:09;;;;;;;10.13;7.53;;;9.30;81.20;;;;;;5017299;28;20202;-84
2022/04/05 13:22:01;;;;;;;8.47;6.73;;;9.10;80.50;;;;;;5017374;28;20653;-85
2022/04/05 13:24:46;;;;;;;8.97;6.97;;;9.10;83.10;;;;;;5009979;28;20196;-86
2022/04/05 13:27:14;;;;;;;8.83;7.60;;;9.40;81.80;;;;;;5010399;28;20210;-84
2022/04/05 13:29:43;;;;;;;8.57;7.07;;;9.50;82.30;;;;;;5015035;28;20226;-86